Time;durP1;ratioP1;P1;durP2;ratioP2;P2;SDS_P1;SDS_P2;PMS_P1;PMS_P2;Temp;Humidity;BMP_temperature;BMP_pressure;BME280_temperature;BME280_humidity;BME280_pressure;Samples;Min_cycle;Max_cycle;Signal;HPM_P1;HPM_P2
2022/07/20 00:00:08;;;;;;;6.90;3.58;;;24.90;65.80;;;;;;5104131;28;20604;-63
2022/07/20 00:02:34;;;;;;;7.65;3.22;;;24.90;65.60;;;;;;5106325;28;20482;-62
2022/07/20 00:05:00;;;;;;;6.28;3.38;;;24.90;65.70;;;;;;5097423;28;20193;-63
2022/07/20 00:07:25;;;;;;;7.43;3.72;;;24.80;65.80;;;;;;5100858;28;20038;-62
2022/07/20 00:12:35;;;;;;;6.00;3.42;;;24.70;65.90;;;;;;5097059;28;20518;-62
2022/07/20 00:15:01;;;;;;;6.55;3.50;;;24.60;65.90;;;;;;5100307;28;20032;-63
2022/07/20 00:17:26;;;;;;;5.60;3.17;;;24.60;66.00;;;;;;5106219;28;20047;-63
2022/07/20 00:19:52;;;;;;;6.78;3.05;;;24.60;66.20;;;;;;5109279;28;20055;-62
2022/07/20 00:22:17;;;;;;;6.80;3.28;;;24.50;66.20;;;;;;5094512;28;20083;-62
2022/07/20 00:24:43;;;;;;;6.18;3.20;;;24.50;66.30;;;;;;5106618;28;20146;-62
2022/07/20 00:27:09;;;;;;;6.82;3.35;;;24.40;66.60;;;;;;5105345;28;20043;-63
2022/07/20 00:29:34;;;;;;;5.43;3.10;;;24.40;66.60;;;;;;5100520;28;20042;-63
2022/07/20 00:32:00;;;;;;;6.78;3.38;;;24.30;66.60;;;;;;5102349;28;20058;-62
2022/07/20 00:34:25;;;;;;;5.75;3.03;;;24.30;66.70;;;;;;5107809;28;20120;-63
2022/07/20 00:36:51;;;;;;;7.18;3.13;;;24.20;66.90;;;;;;5107071;28;20442;-63
2022/07/20 00:39:16;;;;;;;6.60;3.00;;;24.20;66.80;;;;;;5107515;28;20104;-64
2022/07/20 00:41:42;;;;;;;6.03;3.00;;;24.10;66.90;;;;;;5106522;28;20058;-63
2022/07/20 00:44:10;;;;;;;6.40;3.22;;;24.10;67.00;;;;;;5101937;28;20055;-63
2022/07/20 00:46:42;;;;;;;7.22;3.47;;;24.00;67.10;;;;;;5095242;28;20032;-62
2022/07/20 00:49:10;;;;;;;6.25;3.25;;;24.00;67.30;;;;;;5087889;28;20075;-62
2022/07/20 00:51:37;;;;;;;5.68;3.10;;;23.90;67.50;;;;;;5105311;28;20032;-62
2022/07/20 00:54:07;;;;;;;4.85;3.03;;;23.90;67.60;;;;;;5098635;28;20075;-63
2022/07/20 00:56:34;;;;;;;7.55;3.38;;;23.80;67.50;;;;;;5105338;28;20093;-62
2022/07/20 00:59:05;;;;;;;5.85;3.20;;;23.80;67.30;;;;;;5107164;28;20039;-62
2022/07/20 01:01:32;;;;;;;7.35;3.63;;;23.80;66.80;;;;;;5101735;28;20039;-63
2022/07/20 01:03:58;;;;;;;5.80;3.08;;;23.80;66.90;;;;;;5104934;28;20054;-63
2022/07/20 01:06:24;;;;;;;5.75;3.28;;;23.70;66.80;;;;;;5096311;28;20044;-62
2022/07/20 01:08:50;;;;;;;5.90;3.17;;;23.80;66.80;;;;;;5107928;28;20048;-63
2022/07/20 01:11:16;;;;;;;6.53;2.88;;;23.80;66.80;;;;;;5106811;28;20042;-63
2022/07/20 01:13:42;;;;;;;9.02;3.38;;;23.70;67.00;;;;;;5102073;28;20039;-62
2022/07/20 01:16:07;;;;;;;7.07;3.30;;;23.70;67.40;;;;;;5104929;28;20452;-64
2022/07/20 01:18:33;;;;;;;7.15;3.33;;;23.70;67.40;;;;;;5104784;28;20035;-64
2022/07/20 01:21:03;;;;;;;5.22;3.00;;;23.60;67.40;;;;;;5104757;28;20173;-63
2022/07/20 01:23:29;;;;;;;7.60;3.05;;;23.60;67.60;;;;;;5105526;28;20043;-62
2022/07/20 01:25:55;;;;;;;9.30;3.33;;;23.60;67.60;;;;;;5091477;28;20514;-63
2022/07/20 01:28:21;;;;;;;4.63;3.00;;;23.50;67.40;;;;;;5097057;28;20482;-62
2022/07/20 01:30:46;;;;;;;6.30;3.40;;;23.50;67.50;;;;;;5105097;28;20039;-63
2022/07/20 01:33:12;;;;;;;5.22;2.97;;;23.50;67.80;;;;;;5106747;28;20395;-62
2022/07/20 01:35:37;;;;;;;5.82;3.20;;;23.40;68.10;;;;;;5103445;28;20035;-62
2022/07/20 01:38:04;;;;;;;5.00;3.10;;;23.40;68.20;;;;;;5102469;28;20438;-62
2022/07/20 01:40:29;;;;;;;6.47;3.00;;;23.30;68.30;;;;;;5090315;28;20412;-63
2022/07/20 01:42:55;;;;;;;7.38;3.50;;;23.30;68.10;;;;;;5098220;28;20131;-63
2022/07/20 01:45:20;;;;;;;6.35;3.30;;;23.30;68.00;;;;;;5098098;28;20478;-63
2022/07/20 01:47:46;;;;;;;4.97;3.22;;;23.30;68.10;;;;;;5104124;28;20386;-62
2022/07/20 01:50:11;;;;;;;8.23;3.40;;;23.30;68.30;;;;;;5094438;28;20047;-63
2022/07/20 01:52:37;;;;;;;5.68;3.08;;;23.30;68.30;;;;;;5105432;28;20046;-62
2022/07/20 01:55:03;;;;;;;5.82;3.20;;;23.20;68.50;;;;;;5100064;28;20140;-62
2022/07/20 01:57:29;;;;;;;5.28;3.63;;;23.10;68.80;;;;;;5102607;28;20126;-62
2022/07/20 01:59:55;;;;;;;6.72;3.30;;;23.10;69.00;;;;;;5107208;28;20190;-63
2022/07/20 02:02:20;;;;;;;6.03;3.17;;;23.10;69.20;;;;;;5089949;28;20055;-62
2022/07/20 02:04:46;;;;;;;8.10;3.90;;;23.10;69.30;;;;;;5101878;28;20068;-63
2022/07/20 02:07:11;;;;;;;5.80;3.42;;;23.00;69.70;;;;;;5102162;28;20144;-63
2022/07/20 02:09:37;;;;;;;5.47;3.10;;;22.90;70.20;;;;;;5092685;28;20051;-62
2022/07/20 02:12:03;;;;;;;6.78;3.30;;;22.90;70.40;;;;;;5107033;28;20039;-62
2022/07/20 02:14:28;;;;;;;7.55;3.28;;;22.90;70.70;;;;;;5106397;28;20269;-62
2022/07/20 02:16:55;;;;;;;6.95;3.30;;;22.90;70.70;;;;;;5104089;28;20054;-62
2022/07/20 02:19:20;;;;;;;5.25;3.35;;;22.80;71.50;;;;;;5101292;28;20200;-63
2022/07/20 02:21:47;;;;;;;5.13;3.22;;;22.80;70.90;;;;;;5105523;28;20466;-62
2022/07/20 02:24:12;;;;;;;6.03;3.40;;;22.80;71.20;;;;;;5098974;28;20054;-62
2022/07/20 02:26:38;;;;;;;5.57;3.00;;;22.70;71.50;;;;;;5107541;28;21497;-62
2022/07/20 02:29:03;;;;;;;5.32;3.28;;;22.70;71.70;;;;;;5106424;28;20039;-62
2022/07/20 02:31:29;;;;;;;8.15;3.80;;;22.60;71.80;;;;;;5107566;28;20052;-62
2022/07/20 02:33:54;;;;;;;8.75;4.25;;;22.60;71.80;;;;;;5091617;28;20047;-63
2022/07/20 02:36:20;;;;;;;7.40;3.50;;;22.50;71.70;;;;;;5090950;28;20040;-62
2022/07/20 02:38:46;;;;;;;9.70;3.88;;;22.50;71.70;;;;;;5103405;28;20063;-62
2022/07/20 02:41:12;;;;;;;7.13;3.63;;;22.40;71.70;;;;;;5109513;28;20070;-62
2022/07/20 02:43:38;;;;;;;7.25;3.80;;;22.40;71.70;;;;;;5107590;28;20046;-62
2022/07/20 02:46:04;;;;;;;4.97;3.25;;;22.40;71.80;;;;;;5122941;27;20119;-63
2022/07/20 02:48:29;;;;;;;7.50;3.47;;;22.30;71.90;;;;;;5105388;28;20040;-62
2022/07/20 02:50:55;;;;;;;8.05;3.40;;;22.30;71.70;;;;;;5094620;28;20051;-63
2022/07/20 02:53:21;;;;;;;7.60;3.75;;;22.30;71.30;;;;;;5094017;28;20141;-63
2022/07/20 02:55:46;;;;;;;6.97;3.72;;;22.30;71.20;;;;;;5109891;28;20517;-62
2022/07/20 02:58:12;;;;;;;7.93;3.90;;;22.30;71.30;;;;;;5108449;28;20051;-62
2022/07/20 03:00:39;;;;;;;6.40;3.65;;;22.20;71.50;;;;;;5106622;27;20092;-63
2022/07/20 03:03:05;;;;;;;5.97;3.33;;;22.20;71.80;;;;;;5100611;28;20044;-62
2022/07/20 03:05:32;;;;;;;6.97;3.90;;;22.20;72.40;;;;;;5099919;28;20067;-62
2022/07/20 03:07:58;;;;;;;5.63;3.47;;;22.20;72.60;;;;;;5109274;28;20043;-62
2022/07/20 03:10:24;;;;;;;6.88;3.92;;;22.10;72.60;;;;;;5107100;28;20046;-63
2022/07/20 03:12:49;;;;;;;7.82;3.75;;;22.10;72.60;;;;;;5107869;28;20442;-63
2022/07/20 03:15:15;;;;;;;5.30;3.58;;;22.10;72.50;;;;;;5109013;28;20035;-62
2022/07/20 03:17:52;;;;;;;5.22;3.30;;;22.00;72.30;;;;;;5109018;28;20576;-62
2022/07/20 03:20:21;;;;;;;5.28;3.33;;;22.10;71.90;;;;;;5104786;28;20526;-62
2022/07/20 03:22:46;;;;;;;6.28;3.50;;;22.00;72.00;;;;;;5089610;28;20085;-62
2022/07/20 03:25:12;;;;;;;5.20;3.03;;;22.00;71.80;;;;;;5098319;28;20580;-62
2022/07/20 03:27:38;;;;;;;5.28;3.60;;;22.00;71.70;;;;;;5097181;28;20109;-62
2022/07/20 03:30:05;;;;;;;7.07;3.70;;;21.90;71.90;;;;;;5096836;28;20054;-63
2022/07/20 03:32:31;;;;;;;7.00;3.72;;;22.00;71.90;;;;;;5100664;28;20475;-62
2022/07/20 03:34:57;;;;;;;6.85;3.90;;;22.00;71.80;;;;;;5102885;28;20051;-63
2022/07/20 03:37:23;;;;;;;7.18;3.63;;;22.00;71.70;;;;;;5104408;28;20036;-62
2022/07/20 03:39:48;;;;;;;6.65;3.67;;;21.90;71.70;;;;;;5102283;28;20176;-63
2022/07/20 03:42:14;;;;;;;6.30;4.05;;;21.90;71.80;;;;;;5105187;28;20059;-62
2022/07/20 03:44:39;;;;;;;5.55;3.55;;;21.90;71.60;;;;;;5108106;28;20039;-63
2022/07/20 03:47:05;;;;;;;6.55;3.97;;;21.90;71.70;;;;;;5086757;28;20492;-63
2022/07/20 03:49:31;;;;;;;9.25;4.13;;;21.90;72.00;;;;;;5107534;28;20442;-63
2022/07/20 03:51:56;;;;;;;5.20;3.25;;;21.80;71.60;;;;;;5097547;28;20467;-63
2022/07/20 03:54:22;;;;;;;5.90;3.78;;;21.80;71.20;;;;;;5089762;28;20042;-62
2022/07/20 03:56:48;;;;;;;8.38;3.67;;;21.80;71.40;;;;;;5089722;28;20071;-62
2022/07/20 03:59:13;;;;;;;6.32;3.60;;;21.90;71.80;;;;;;5107237;28;20065;-62
2022/07/20 04:01:39;;;;;;;6.80;3.67;;;21.90;71.70;;;;;;5103442;28;20047;-62
2022/07/20 04:04:05;;;;;;;8.32;3.50;;;21.90;71.40;;;;;;5088184;28;20036;-62
2022/07/20 04:06:31;;;;;;;9.45;3.80;;;21.90;71.40;;;;;;5088304;28;20040;-62
2022/07/20 04:08:57;;;;;;;6.95;3.50;;;21.90;71.30;;;;;;5108317;28;20050;-62
2022/07/20 04:11:22;;;;;;;6.95;4.03;;;21.90;71.50;;;;;;5107809;28;20040;-63
2022/07/20 04:13:48;;;;;;;8.18;3.88;;;21.90;71.80;;;;;;5105739;28;20055;-63
2022/07/20 04:16:13;;;;;;;5.88;3.60;;;21.90;71.90;;;;;;5105820;28;20047;-62
2022/07/20 04:18:39;;;;;;;7.55;3.75;;;22.00;71.50;;;;;;5108271;28;20439;-62
2022/07/20 04:21:05;;;;;;;5.97;4.03;;;22.10;71.10;;;;;;5108235;28;20058;-63
2022/07/20 04:23:31;;;;;;;11.32;4.25;;;22.20;70.60;;;;;;5091371;28;20067;-62
2022/07/20 04:25:56;;;;;;;8.15;4.22;;;22.20;70.80;;;;;;5102248;28;20376;-63
2022/07/20 04:28:22;;;;;;;8.20;3.55;;;22.30;70.10;;;;;;5107829;28;20028;-62
2022/07/20 04:30:47;;;;;;;6.30;3.50;;;22.30;69.90;;;;;;5096606;28;20043;-63
2022/07/20 04:33:13;;;;;;;7.63;3.83;;;22.40;69.60;;;;;;5105343;28;20035;-62
2022/07/20 04:35:38;;;;;;;9.77;3.92;;;22.40;69.20;;;;;;5096128;28;20044;-63
2022/07/20 04:38:04;;;;;;;5.10;3.50;;;22.40;69.20;;;;;;5087306;28;20233;-63
2022/07/20 04:40:30;;;;;;;5.90;4.00;;;22.40;69.50;;;;;;5100409;28;20201;-62
2022/07/20 04:42:55;;;;;;;7.45;3.70;;;22.50;69.10;;;;;;5106358;28;20116;-63
2022/07/20 04:45:21;;;;;;;8.75;4.10;;;22.60;69.30;;;;;;5106874;28;20111;-63
2022/07/20 04:47:47;;;;;;;6.97;4.05;;;22.60;70.00;;;;;;5107888;28;20481;-63
2022/07/20 04:50:13;;;;;;;8.45;3.80;;;22.80;69.60;;;;;;5107215;28;20036;-62
2022/07/20 04:52:40;;;;;;;6.13;3.83;;;22.80;69.40;;;;;;5107174;28;20131;-62
2022/07/20 04:55:06;;;;;;;9.32;3.83;;;22.90;69.80;;;;;;5108002;28;20048;-62
2022/07/20 04:57:32;;;;;;;6.28;3.85;;;23.00;70.00;;;;;;5106064;28;20105;-62
2022/07/20 04:59:58;;;;;;;7.40;3.65;;;23.00;70.20;;;;;;5104722;28;20087;-63
2022/07/20 05:02:24;;;;;;;6.28;3.65;;;23.10;69.80;;;;;;5102489;28;20040;-63
2022/07/20 05:04:49;;;;;;;7.90;3.78;;;23.20;69.90;;;;;;5096679;28;20044;-63
2022/07/20 05:07:15;;;;;;;7.47;4.32;;;23.30;69.10;;;;;;5106362;28;20058;-64
2022/07/20 05:09:41;;;;;;;8.25;3.72;;;23.40;69.00;;;;;;5107493;28;20443;-63
2022/07/20 05:12:07;;;;;;;6.97;3.78;;;23.50;69.10;;;;;;5106474;28;20036;-63
2022/07/20 05:14:33;;;;;;;5.97;3.90;;;23.60;68.60;;;;;;5107594;28;20036;-63
2022/07/20 05:16:58;;;;;;;6.35;3.70;;;23.70;68.50;;;;;;5104203;28;20039;-63
2022/07/20 05:19:24;;;;;;;6.95;3.33;;;23.80;68.50;;;;;;5104068;28;20054;-62
2022/07/20 05:21:49;;;;;;;6.80;3.70;;;24.00;68.50;;;;;;5104792;28;20214;-63
2022/07/20 05:24:15;;;;;;;9.13;4.07;;;24.10;69.00;;;;;;5104351;28;20055;-63
2022/07/20 05:26:41;;;;;;;6.65;3.60;;;24.20;69.40;;;;;;5105315;28;20519;-63
2022/07/20 05:29:06;;;;;;;8.95;3.80;;;24.30;69.50;;;;;;5107363;28;20036;-62
2022/07/20 05:31:32;;;;;;;7.13;3.90;;;24.40;69.50;;;;;;5104060;28;20412;-63
2022/07/20 05:33:58;;;;;;;6.30;3.20;;;24.50;69.50;;;;;;5123685;27;20035;-62
2022/07/20 05:36:23;;;;;;;6.22;3.75;;;24.70;69.20;;;;;;5104442;28;20092;-62
2022/07/20 05:38:49;;;;;;;6.85;4.20;;;24.80;68.70;;;;;;5103263;28;20043;-62
2022/07/20 05:41:15;;;;;;;6.32;3.75;;;24.90;68.20;;;;;;5106475;28;20716;-64
2022/07/20 05:43:41;;;;;;;9.38;4.43;;;25.00;67.80;;;;;;5109057;28;20119;-63
2022/07/20 05:46:06;;;;;;;7.43;4.00;;;25.00;67.20;;;;;;5105143;28;20473;-63
2022/07/20 05:48:32;;;;;;;9.35;4.45;;;25.20;67.00;;;;;;5106628;28;20035;-64
2022/07/20 05:50:58;;;;;;;6.65;4.00;;;25.30;66.50;;;;;;5106094;28;20086;-63
2022/07/20 05:53:24;;;;;;;8.68;4.70;;;25.40;66.30;;;;;;5104402;28;20075;-63
2022/07/20 05:55:49;;;;;;;7.45;4.22;;;25.50;66.10;;;;;;5107462;27;20044;-64
2022/07/20 05:58:15;;;;;;;9.18;4.43;;;25.60;65.90;;;;;;5109960;28;20090;-64
2022/07/20 06:00:41;;;;;;;8.57;4.40;;;25.70;65.90;;;;;;5111475;28;20047;-64
2022/07/20 06:03:07;;;;;;;8.40;4.32;;;25.80;65.90;;;;;;5106790;28;20047;-63
2022/07/20 06:05:33;;;;;;;8.20;4.18;;;25.90;66.10;;;;;;5102012;28;20040;-63
2022/07/20 06:08:00;;;;;;;7.43;4.22;;;26.00;66.20;;;;;;5109404;28;20130;-64
2022/07/20 06:10:27;;;;;;;8.23;4.60;;;26.00;65.90;;;;;;5111243;28;20043;-65
2022/07/20 06:12:55;;;;;;;7.60;4.30;;;26.10;65.90;;;;;;5110392;28;20427;-65
2022/07/20 06:15:21;;;;;;;8.35;4.45;;;26.10;65.50;;;;;;5110143;28;20047;-66
2022/07/20 06:17:47;;;;;;;9.43;4.40;;;26.30;65.20;;;;;;5109364;28;20043;-65
2022/07/20 06:20:14;;;;;;;9.55;4.63;;;26.50;65.00;;;;;;5111454;28;20463;-65
2022/07/20 06:22:42;;;;;;;8.63;4.32;;;26.50;64.70;;;;;;5110156;28;20453;-65
2022/07/20 06:25:09;;;;;;;8.35;4.32;;;26.60;64.90;;;;;;5111324;28;20164;-65
2022/07/20 06:27:36;;;;;;;8.30;5.68;;;26.60;64.60;;;;;;5111360;28;20067;-65
2022/07/20 06:30:02;;;;;;;7.28;5.13;;;26.70;64.40;;;;;;5109737;28;20470;-65
2022/07/20 06:32:28;;;;;;;8.63;5.00;;;26.90;64.40;;;;;;5109499;28;20172;-65
2022/07/20 06:34:53;;;;;;;8.85;5.55;;;26.90;63.90;;;;;;5111169;28;20552;-65
2022/07/20 06:37:19;;;;;;;7.93;5.45;;;27.00;64.40;;;;;;5110191;28;20050;-66
2022/07/20 06:39:45;;;;;;;13.35;6.15;;;27.10;64.40;;;;;;5099932;28;20036;-65
2022/07/20 06:42:11;;;;;;;12.10;5.75;;;27.20;64.10;;;;;;5090461;28;20371;-65
2022/07/20 06:44:36;;;;;;;13.00;6.72;;;27.30;64.30;;;;;;5090319;28;20043;-66
2022/07/20 06:47:02;;;;;;;11.20;5.90;;;27.30;64.20;;;;;;5095816;28;20060;-65
2022/07/20 06:49:28;;;;;;;11.95;6.28;;;27.30;64.90;;;;;;5110388;28;20067;-66
2022/07/20 06:51:55;;;;;;;13.85;7.38;;;27.40;65.50;;;;;;5109836;28;20506;-66
2022/07/20 06:54:20;;;;;;;14.60;8.30;;;27.50;65.50;;;;;;5111442;28;20134;-66
2022/07/20 06:56:46;;;;;;;13.45;8.35;;;27.30;66.30;;;;;;5110901;28;20158;-66
2022/07/20 06:59:12;;;;;;;14.98;8.48;;;27.40;66.50;;;;;;5110045;28;20043;-66
2022/07/20 07:01:37;;;;;;;13.73;9.23;;;27.50;67.20;;;;;;5109820;28;20140;-66
2022/07/20 07:04:03;;;;;;;15.18;10.90;;;27.60;67.20;;;;;;5109924;28;20035;-65
2022/07/20 07:06:30;;;;;;;17.08;10.77;;;27.60;67.80;;;;;;5106528;27;20047;-65
2022/07/20 07:08:56;;;;;;;16.48;10.15;;;27.70;68.20;;;;;;5110703;28;20043;-65
2022/07/20 07:11:22;;;;;;;12.40;9.65;;;27.70;68.70;;;;;;5110790;28;20043;-66
2022/07/20 07:13:47;;;;;;;14.80;10.50;;;27.80;68.50;;;;;;5109750;28;20066;-66
2022/07/20 07:16:13;;;;;;;18.67;11.38;;;27.80;68.30;;;;;;5110057;28;20294;-66
2022/07/20 07:18:39;;;;;;;16.55;11.52;;;27.80;68.30;;;;;;5108777;28;20035;-66
2022/07/20 07:21:05;;;;;;;16.13;11.20;;;27.80;68.70;;;;;;5107358;28;20461;-66
2022/07/20 07:23:30;;;;;;;16.35;11.77;;;27.80;69.20;;;;;;5110489;28;20467;-66
2022/07/20 07:25:56;;;;;;;19.83;13.50;;;27.80;69.70;;;;;;5109209;28;20047;-66
2022/07/20 07:28:22;;;;;;;19.00;12.80;;;27.80;70.70;;;;;;5110200;28;20131;-65
2022/07/20 07:30:50;;;;;;;18.45;14.13;;;28.00;70.90;;;;;;5109196;28;20042;-66
2022/07/20 07:33:16;;;;;;;16.23;13.65;;;27.90;71.80;;;;;;5107879;28;20442;-65
2022/07/20 07:35:42;;;;;;;22.17;15.35;;;28.00;71.90;;;;;;5109412;28;20043;-65
2022/07/20 07:38:07;;;;;;;17.73;13.32;;;27.90;72.70;;;;;;5108953;28;20393;-66
2022/07/20 07:40:33;;;;;;;16.70;14.00;;;28.00;72.50;;;;;;5106251;28;20040;-66
2022/07/20 07:42:58;;;;;;;19.60;14.20;;;28.10;72.40;;;;;;5109909;28;20443;-67
2022/07/20 07:45:24;;;;;;;20.90;13.23;;;28.20;72.90;;;;;;5109683;28;20457;-67
2022/07/20 07:47:50;;;;;;;22.02;14.63;;;28.20;73.60;;;;;;5107353;28;20174;-66
2022/07/20 07:50:15;;;;;;;25.00;15.88;;;28.40;73.20;;;;;;5109095;28;20438;-66
2022/07/20 07:52:41;;;;;;;18.42;15.05;;;28.40;73.10;;;;;;5110018;28;20062;-66
2022/07/20 07:55:07;;;;;;;19.88;15.52;;;28.40;74.10;;;;;;5108868;28;20055;-66
2022/07/20 07:57:32;;;;;;;22.85;15.93;;;28.30;73.60;;;;;;5109657;28;20069;-66
2022/07/20 07:59:58;;;;;;;17.95;15.38;;;28.20;74.10;;;;;;5109197;28;20048;-66
2022/07/20 08:02:23;;;;;;;21.85;16.73;;;28.20;74.00;;;;;;5105477;28;20036;-66
2022/07/20 08:04:49;;;;;;;21.25;15.52;;;28.30;74.00;;;;;;5109393;28;20065;-66
2022/07/20 08:07:14;;;;;;;22.10;17.38;;;28.40;74.40;;;;;;5109270;28;20061;-67
2022/07/20 08:09:40;;;;;;;21.13;17.25;;;28.30;74.60;;;;;;5109042;28;20036;-67
2022/07/20 08:12:06;;;;;;;24.98;18.55;;;28.50;74.60;;;;;;5108720;28;20081;-67
2022/07/20 08:14:31;;;;;;;22.92;18.63;;;28.40;75.00;;;;;;5110217;28;20099;-64
2022/07/20 08:16:57;;;;;;;24.88;20.27;;;28.60;75.50;;;;;;5104634;28;20043;-64
2022/07/20 08:19:22;;;;;;;24.05;19.08;;;28.60;74.80;;;;;;5108749;28;20092;-67
2022/07/20 08:21:48;;;;;;;23.75;19.73;;;28.70;75.20;;;;;;5091859;28;20056;-67
2022/07/20 08:24:16;;;;;;;24.50;19.35;;;28.80;74.10;;;;;;5089575;28;20058;-67
2022/07/20 08:26:42;;;;;;;24.17;20.23;;;28.90;73.70;;;;;;5089045;28;20040;-67
2022/07/20 08:29:08;;;;;;;28.05;19.45;;;28.90;73.40;;;;;;5088921;28;20043;-66
2022/07/20 08:31:34;;;;;;;24.98;19.98;;;28.90;73.00;;;;;;5089903;28;20127;-67
2022/07/20 08:33:59;;;;;;;26.83;19.80;;;29.00;73.30;;;;;;5108280;28;20036;-67
2022/07/20 08:36:25;;;;;;;25.13;20.25;;;29.00;73.10;;;;;;5099755;28;20056;-67
2022/07/20 08:38:50;;;;;;;27.52;20.55;;;29.10;72.90;;;;;;5088943;28;20088;-67
2022/07/20 08:41:16;;;;;;;24.42;20.92;;;29.10;72.00;;;;;;5101112;28;20048;-67
2022/07/20 08:43:42;;;;;;;26.85;20.02;;;29.00;70.70;;;;;;5108078;28;20074;-66
2022/07/20 08:46:08;;;;;;;25.35;20.65;;;29.00;71.20;;;;;;5107632;28;20058;-66
2022/07/20 08:48:38;;;;;;;27.05;20.88;;;29.10;71.70;;;;;;5107607;28;20040;-66
2022/07/20 08:51:04;;;;;;;25.48;19.85;;;29.20;71.40;;;;;;5105743;28;20036;-66
2022/07/20 08:53:29;;;;;;;24.10;20.65;;;29.20;70.40;;;;;;5108557;28;20042;-66
2022/07/20 08:55:55;;;;;;;22.08;19.00;;;29.20;70.10;;;;;;5106973;28;20168;-67
2022/07/20 08:58:21;;;;;;;22.85;18.65;;;29.30;69.60;;;;;;5108357;28;20143;-64
2022/07/20 09:00:46;;;;;;;24.77;19.58;;;29.40;70.00;;;;;;5107311;28;20547;-64
2022/07/20 09:03:12;;;;;;;25.98;19.27;;;29.30;69.20;;;;;;5107132;28;20402;-65
2022/07/20 09:05:39;;;;;;;21.63;18.40;;;29.30;68.90;;;;;;5106898;28;20413;-64
2022/07/20 09:08:09;;;;;;;25.83;18.08;;;29.30;69.50;;;;;;5107950;28;20455;-65
2022/07/20 09:10:38;;;;;;;23.00;18.05;;;29.40;68.90;;;;;;5109087;28;20048;-64
2022/07/20 09:13:08;;;;;;;21.52;16.42;;;29.40;68.30;;;;;;5107084;28;20469;-64
2022/07/20 09:15:39;;;;;;;20.77;16.75;;;29.30;68.20;;;;;;5108084;28;20048;-64
2022/07/20 09:18:05;;;;;;;21.05;17.02;;;29.40;68.00;;;;;;5106860;28;20478;-64
2022/07/20 09:20:33;;;;;;;20.73;16.98;;;29.50;68.40;;;;;;5107623;28;20054;-65
2022/07/20 09:23:04;;;;;;;20.67;15.65;;;29.30;68.80;;;;;;5107906;28;20447;-64
2022/07/20 09:25:30;;;;;;;19.45;15.65;;;29.50;69.50;;;;;;5107816;28;20443;-64
2022/07/20 09:27:56;;;;;;;19.67;14.48;;;29.50;68.80;;;;;;5107701;28;20075;-65
2022/07/20 09:30:22;;;;;;;17.77;13.98;;;29.40;68.80;;;;;;5112120;28;20402;-65
2022/07/20 09:33:01;;;;;;;17.95;13.55;;;29.30;67.80;;;;;;5110345;28;20039;-65
2022/07/20 09:35:37;;;;;;;15.15;11.57;;;29.40;67.70;;;;;;5112556;28;20047;-65
2022/07/20 09:38:06;;;;;;;22.25;12.05;;;29.40;66.30;;;;;;5111297;28;20040;-65
2022/07/20 09:40:40;;;;;;;16.25;11.00;;;29.40;66.70;;;;;;5093730;28;20127;-64
2022/07/20 09:43:06;;;;;;;14.38;10.55;;;29.50;65.90;;;;;;5091422;28;20095;-65
2022/07/20 09:45:32;;;;;;;13.85;9.77;;;29.60;65.80;;;;;;5091635;28;20094;-64
2022/07/20 09:48:24;;;;;;;14.20;9.98;;;29.30;64.70;;;;;;5095310;28;20090;-65
2022/07/20 09:50:50;;;;;;;15.82;10.00;;;29.30;64.60;;;;;;5107881;28;20432;-65
2022/07/20 09:53:16;;;;;;;13.18;9.77;;;29.40;65.10;;;;;;5112245;28;20039;-64
2022/07/20 09:55:43;;;;;;;17.25;9.65;;;29.20;65.80;;;;;;5111827;28;20077;-65
2022/07/20 09:58:09;;;;;;;14.55;9.90;;;29.40;66.20;;;;;;5111092;28;20054;-64
2022/07/20 10:00:36;;;;;;;17.13;10.38;;;29.50;65.90;;;;;;5110877;28;20434;-64
2022/07/20 10:03:03;;;;;;;15.15;9.57;;;29.50;65.20;;;;;;5109047;28;20039;-65
2022/07/20 10:05:32;;;;;;;12.90;8.93;;;29.60;65.60;;;;;;5111409;28;20071;-64
2022/07/20 10:08:06;;;;;;;14.73;9.38;;;29.70;65.30;;;;;;5110392;28;20048;-64
2022/07/20 10:10:32;;;;;;;16.73;9.60;;;29.70;65.60;;;;;;5112157;28;20040;-65
2022/07/20 10:12:59;;;;;;;13.93;9.55;;;29.80;65.20;;;;;;5111001;28;20036;-65
2022/07/20 10:15:56;;;;;;;14.88;10.05;;;29.80;64.10;;;;;;5110800;28;20043;-65
2022/07/20 10:18:23;;;;;;;13.80;10.27;;;29.70;64.40;;;;;;5110771;28;20040;-65
2022/07/20 10:20:49;;;;;;;13.68;9.75;;;29.80;64.10;;;;;;5111181;28;20047;-65
2022/07/20 10:23:14;;;;;;;12.65;9.60;;;29.90;64.10;;;;;;5110024;28;20188;-65
2022/07/20 10:25:45;;;;;;;14.07;9.48;;;30.00;63.60;;;;;;5111051;28;20084;-64
2022/07/20 10:28:22;;;;;;;14.82;9.52;;;29.80;63.00;;;;;;5109153;28;20039;-65
2022/07/20 10:30:53;;;;;;;12.80;9.82;;;29.70;63.60;;;;;;5107159;28;20046;-65
2022/07/20 10:33:20;;;;;;;15.55;9.80;;;29.80;64.00;;;;;;5107601;28;20113;-65
2022/07/20 10:35:48;;;;;;;15.77;9.40;;;30.00;63.50;;;;;;5110162;28;20047;-65
2022/07/20 10:38:20;;;;;;;11.65;8.68;;;30.10;63.40;;;;;;5111242;28;20075;-65
2022/07/20 10:44:19;;;;;;;12.73;9.68;;;30.10;63.50;;;;;;5109963;28;20158;-65
2022/07/20 10:46:45;;;;;;;12.48;8.80;;;30.10;63.80;;;;;;5105633;28;20058;-64
2022/07/20 10:49:11;;;;;;;10.80;8.45;;;30.10;63.70;;;;;;5089398;28;20035;-65
2022/07/20 10:51:36;;;;;;;13.63;8.98;;;30.10;63.30;;;;;;5087240;28;20035;-65
2022/07/20 10:54:32;;;;;;;12.98;8.70;;;30.10;63.10;;;;;;5089852;28;20039;-64
2022/07/20 10:56:59;;;;;;;12.90;8.70;;;30.10;63.40;;;;;;5088258;28;20456;-65
2022/07/20 10:59:25;;;;;;;12.00;8.32;;;30.10;63.60;;;;;;5107741;28;20043;-64
2022/07/20 11:01:51;;;;;;;14.15;8.77;;;30.30;64.10;;;;;;5108048;28;20234;-65
2022/07/20 11:04:17;;;;;;;11.57;7.75;;;30.40;63.30;;;;;;5106755;28;20229;-64
2022/07/20 11:06:42;;;;;;;13.45;7.97;;;30.40;63.50;;;;;;5107002;28;20066;-64
2022/07/20 11:09:08;;;;;;;10.73;8.00;;;30.40;63.10;;;;;;5109888;28;20047;-65
2022/07/20 11:11:38;;;;;;;16.15;8.20;;;30.60;62.90;;;;;;5108646;28;20097;-65
2022/07/20 11:14:05;;;;;;;14.07;8.02;;;30.60;62.40;;;;;;5109669;28;20394;-65
2022/07/20 11:16:34;;;;;;;10.27;7.40;;;30.70;62.00;;;;;;5108454;28;20046;-65
2022/07/20 11:19:02;;;;;;;10.82;7.78;;;30.70;61.50;;;;;;5106785;28;20053;-65
2022/07/20 11:21:39;;;;;;;11.93;8.37;;;30.60;61.00;;;;;;5072010;28;1040453;-64
2022/07/20 11:24:24;;;;;;;11.48;7.70;;;30.70;61.90;;;;;;5109603;28;20071;-65
2022/07/20 11:26:50;;;;;;;11.30;7.97;;;30.70;61.80;;;;;;5106911;28;20580;-65
2022/07/20 11:29:16;;;;;;;12.65;8.55;;;30.70;61.40;;;;;;5109933;28;20089;-65
2022/07/20 11:31:42;;;;;;;11.02;8.35;;;30.70;60.50;;;;;;5108010;28;20052;-65
2022/07/20 11:34:11;;;;;;;12.32;8.50;;;30.70;59.90;;;;;;5109394;28;20057;-65
2022/07/20 11:36:37;;;;;;;12.43;9.18;;;30.70;60.00;;;;;;5109211;28;20481;-64
2022/07/20 11:39:08;;;;;;;11.13;8.70;;;30.80;60.80;;;;;;5107634;28;20168;-65
2022/07/20 11:41:36;;;;;;;12.95;9.35;;;30.70;60.40;;;;;;5109618;28;20276;-65
2022/07/20 11:44:04;;;;;;;11.93;8.82;;;30.90;60.60;;;;;;5109387;28;20131;-65
2022/07/20 11:46:36;;;;;;;13.40;9.07;;;30.90;60.10;;;;;;5108273;28;20097;-65
2022/07/20 11:49:05;;;;;;;14.23;9.77;;;31.00;59.60;;;;;;5109492;28;20557;-65
2022/07/20 11:51:32;;;;;;;14.57;9.77;;;31.10;59.90;;;;;;5106451;28;20378;-65
2022/07/20 11:53:59;;;;;;;13.68;10.43;;;31.20;59.30;;;;;;5107632;28;20489;-64
2022/07/20 11:56:27;;;;;;;12.38;10.02;;;31.10;58.80;;;;;;5109545;28;20405;-65
2022/07/20 11:58:55;;;;;;;11.25;9.43;;;31.20;58.80;;;;;;5109414;28;20112;-64
2022/07/20 12:01:23;;;;;;;11.82;8.60;;;31.10;58.80;;;;;;5108404;28;20032;-65
2022/07/20 12:04:08;;;;;;;11.25;8.60;;;31.00;58.70;;;;;;5096523;28;20058;-65
2022/07/20 12:06:37;;;;;;;10.55;8.18;;;31.00;59.00;;;;;;5106739;28;20054;-65
2022/07/20 12:09:20;;;;;;;14.43;8.20;;;30.90;58.60;;;;;;5107045;28;20035;-65
2022/07/20 12:12:06;;;;;;;12.10;8.37;;;30.90;59.10;;;;;;5109559;28;20052;-65
2022/07/20 12:14:40;;;;;;;11.23;8.82;;;31.00;59.90;;;;;;5109574;28;20054;-65
2022/07/20 12:17:14;;;;;;;;;;;31.10;59.00;;;;;;5109172;28;20063;-65
2022/07/20 12:19:42;;;;;;;9.98;6.93;;;31.20;59.80;;;;;;5108716;28;20359;-65
2022/07/20 12:22:17;;;;;;;10.40;6.93;;;31.20;58.90;;;;;;5107995;28;20070;-65
2022/07/20 12:24:50;;;;;;;8.75;6.70;;;31.30;58.00;;;;;;5109079;28;20415;-65
2022/07/20 12:27:16;;;;;;;7.85;6.05;;;31.50;58.80;;;;;;5109212;28;20043;-65
2022/07/20 12:29:42;;;;;;;11.15;6.50;;;31.40;60.00;;;;;;5108883;28;20076;-65
2022/07/20 12:32:08;;;;;;;13.55;6.78;;;31.40;59.00;;;;;;5106791;28;20047;-65
2022/07/20 12:34:49;;;;;;;10.07;6.97;;;31.20;58.90;;;;;;5109824;28;20035;-64
2022/07/20 12:37:15;;;;;;;9.20;5.95;;;31.30;58.40;;;;;;5108215;28;20491;-65
2022/07/20 12:39:49;;;;;;;9.43;5.47;;;31.20;58.70;;;;;;5098113;28;20047;-65
2022/07/20 12:42:21;;;;;;;9.45;5.57;;;31.20;58.50;;;;;;5102958;27;20048;-64
2022/07/20 12:44:47;;;;;;;7.95;5.40;;;31.10;58.80;;;;;;5107820;28;20043;-64